Time;durP1;ratioP1;P1;durP2;ratioP2;P2;SDS_P1;SDS_P2;PMS_P1;PMS_P2;Temp;Humidity;BMP_temperature;BMP_pressure;BME280_temperature;BME280_humidity;BME280_pressure;Samples;Min_cycle;Max_cycle;Signal;HPM_P1;HPM_P2
2022/06/05 00:01:36;;;;;;;5.15;2.90;;;;;;;18.91;62.33;101467.94;5080529;28;20040;-76
2022/06/05 00:04:06;;;;;;;4.80;2.83;;;;;;;18.90;62.53;101478.63;5062638;28;20059;-76
2022/06/05 00:06:37;;;;;;;4.40;2.70;;;;;;;18.88;62.53;101476.19;5098673;28;20034;-76
2022/06/05 00:09:48;;;;;;;3.67;2.95;;;;;;;18.86;62.83;101468.50;5080685;28;20043;-76
2022/06/05 00:12:18;;;;;;;3.72;2.92;;;;;;;18.83;63.20;101455.75;5094796;28;20044;-76
2022/06/05 00:14:44;;;;;;;4.63;3.10;;;;;;;18.80;63.24;101450.91;5080604;28;20099;-76
2022/06/05 00:17:13;;;;;;;4.20;3.22;;;;;;;18.77;63.47;101448.63;5082694;28;20127;-75
2022/06/05 00:19:42;;;;;;;4.03;2.92;;;;;;;18.73;63.35;101450.03;5102107;28;20019;-76
2022/06/05 00:22:08;;;;;;;4.03;3.20;;;;;;;18.71;63.25;101452.03;5100828;28;20028;-76
2022/06/05 00:24:34;;;;;;;4.40;3.08;;;;;;;18.67;63.45;101456.06;5083031;28;20035;-76
2022/06/05 00:27:46;;;;;;;5.25;3.00;;;;;;;18.64;63.68;101456.44;5083047;28;20039;-76
2022/06/05 00:30:21;;;;;;;3.33;2.92;;;;;;;18.58;64.02;101442.25;5038499;28;20052;-76
2022/06/05 00:32:57;;;;;;;7.80;2.60;;;;;;;18.52;64.31;101440.41;5085454;28;20043;-76
2022/06/05 00:35:25;;;;;;;4.75;3.42;;;;;;;18.45;64.48;101437.72;5069881;28;20043;-76
2022/06/05 00:38:02;;;;;;;3.83;3.03;;;;;;;18.42;64.59;101435.50;5083510;28;20552;-76
2022/06/05 00:40:54;;;;;;;4.10;3.47;;;;;;;18.41;64.81;101438.31;5084028;28;20492;-76
2022/06/05 00:43:24;;;;;;;3.53;2.97;;;;;;;18.38;64.99;101450.00;5102084;28;20088;-76
2022/06/05 00:45:51;;;;;;;5.78;3.30;;;;;;;18.37;65.02;101448.41;5072338;28;20046;-76
2022/06/05 00:48:17;;;;;;;5.95;3.15;;;;;;;18.36;65.02;101443.31;5062929;28;20123;-76
2022/06/05 00:50:44;;;;;;;5.00;3.20;;;;;;;18.32;65.10;101432.41;5084730;28;20126;-75
2022/06/05 00:53:11;;;;;;;4.07;3.10;;;;;;;18.30;65.09;101423.91;5082104;28;20063;-76
2022/06/05 00:55:40;;;;;;;4.90;3.40;;;;;;;18.28;65.09;101424.09;5100635;28;20452;-76
2022/06/05 00:58:07;;;;;;;3.42;3.08;;;;;;;18.28;65.08;101428.53;5069611;28;20034;-76
2022/06/05 01:00:37;;;;;;;5.53;3.13;;;;;;;18.25;65.30;101415.78;5083890;28;20472;-75
2022/06/05 01:03:05;;;;;;;4.13;3.10;;;;;;;18.23;65.45;101407.28;5099910;28;21603;-75
2022/06/05 01:05:32;;;;;;;4.00;3.60;;;;;;;18.21;65.56;101410.09;5102138;28;20455;-76
2022/06/05 01:07:58;;;;;;;5.18;3.42;;;;;;;18.16;66.24;101407.28;5065212;28;20506;-75
2022/06/05 01:10:35;;;;;;;5.75;3.42;;;;;;;18.13;66.80;101406.84;5081604;28;20605;-76
2022/06/05 01:13:37;;;;;;;6.15;3.75;;;;;;;18.07;67.06;101403.97;5062421;28;20080;-75
2022/06/05 01:16:31;;;;;;;5.45;3.40;;;;;;;18.04;67.44;101408.78;5101454;28;20040;-75
2022/06/05 01:19:12;;;;;;;;;;;;;;;18.00;67.56;101404.91;5054505;28;20580;-76
2022/06/05 01:22:05;;;;;;;4.40;3.58;;;;;;;17.96;67.76;101388.75;5083813;28;20281;-76
2022/06/05 01:25:00;;;;;;;;;;;;;;;17.92;68.03;101382.25;5077839;28;20035;-76
2022/06/05 01:27:31;;;;;;;5.38;3.40;;;;;;;17.91;68.02;101388.50;5060380;28;19919;-76
2022/06/05 01:30:03;;;;;;;8.95;3.67;;;;;;;17.81;68.05;101373.06;5062319;28;20503;-76
2022/06/05 01:32:44;;;;;;;4.95;4.03;;;;;;;17.77;68.40;101376.25;5080767;28;20067;-76
2022/06/05 01:35:24;;;;;;;4.97;3.35;;;;;;;17.74;68.53;101377.44;5083859;28;20344;-75
2022/06/05 01:37:56;;;;;;;4.38;3.65;;;;;;;17.70;68.60;101377.00;5102316;27;20035;-76
2022/06/05 01:40:34;;;;;;;4.13;3.72;;;;;;;17.66;68.71;101367.91;5083179;28;20113;-76
2022/06/05 01:43:10;;;;;;;7.93;3.70;;;;;;;17.64;68.79;101367.28;5101182;28;20596;-76
2022/06/05 01:45:51;;;;;;;5.63;3.45;;;;;;;17.60;69.26;101362.59;5082837;28;20047;-76
2022/06/05 01:48:27;;;;;;;6.10;3.35;;;;;;;17.53;69.47;101359.91;5082209;28;20046;-76
2022/06/05 01:50:58;;;;;;;4.57;3.42;;;;;;;17.49;69.60;101351.63;5080041;27;20035;-76
2022/06/05 01:54:07;;;;;;;5.50;3.88;;;;;;;17.45;69.75;101346.94;5086018;28;20498;-76
2022/06/05 01:56:38;;;;;;;5.10;4.35;;;;;;;17.40;69.82;101344.88;5101027;27;20031;-75
2022/06/05 01:59:16;;;;;;;5.05;4.13;;;;;;;17.35;69.98;101339.41;5081853;27;20084;-76
2022/06/05 02:01:47;;;;;;;7.53;4.05;;;;;;;17.28;70.38;101341.94;5082893;28;20536;-76
2022/06/05 02:04:18;;;;;;;5.93;4.10;;;;;;;17.22;70.85;101336.66;5099935;27;20375;-76
2022/06/05 02:06:53;;;;;;;6.65;4.18;;;;;;;17.20;70.42;101334.22;5082107;28;20027;-76
2022/06/05 02:09:27;;;;;;;5.00;4.45;;;;;;;17.08;71.02;101325.22;5100007;28;20511;-76
2022/06/05 02:11:53;;;;;;;5.28;3.55;;;;;;;17.02;71.24;101320.72;5102021;28;20032;-76
2022/06/05 02:14:18;;;;;;;4.57;4.03;;;;;;;16.97;71.48;101302.97;5084836;28;20118;-75
2022/06/05 02:16:44;;;;;;;4.88;3.90;;;;;;;16.96;71.79;101292.66;5105362;28;20188;-75
2022/06/05 02:19:16;;;;;;;5.88;5.00;;;;;;;16.92;71.97;101286.97;5085021;28;20047;-75
2022/06/05 02:21:41;;;;;;;5.97;4.78;;;;;;;16.87;72.29;101278.88;5101851;27;20024;-75
2022/06/05 02:24:10;;;;;;;9.70;4.35;;;;;;;16.83;72.53;101270.56;5098829;28;20864;-76
2022/06/05 02:26:35;;;;;;;5.75;4.30;;;;;;;16.77;72.98;101267.88;5066272;27;20739;-76
2022/06/05 02:29:07;;;;;;;7.13;5.43;;;;;;;16.73;73.17;101263.00;5085643;28;20801;-75
2022/06/05 02:31:38;;;;;;;6.57;5.43;;;;;;;16.67;73.29;101261.13;5082208;28;20043;-76
2022/06/05 02:34:27;;;;;;;8.57;4.65;;;;;;;16.64;73.55;101260.66;5085314;28;20116;-76
2022/06/05 02:37:26;;;;;;;5.22;3.70;;;;;;;16.63;73.85;101251.19;5084897;28;20031;-75
2022/06/05 02:40:40;;;;;;;6.28;5.10;;;;;;;16.62;73.88;101242.53;5103688;27;20035;-76
2022/06/05 02:43:14;;;;;;;5.65;4.65;;;;;;;16.62;73.62;101239.09;5018621;28;20048;-75
2022/06/05 02:45:51;;;;;;;8.10;4.88;;;;;;;16.62;73.69;101236.50;5005639;28;20536;-75
2022/06/05 02:48:57;;;;;;;12.40;5.38;;;;;;;16.64;73.60;101227.44;5074637;27;20092;-75
2022/06/05 02:51:33;;;;;;;7.43;4.72;;;;;;;16.62;73.87;101216.34;5084417;28;20115;-75
2022/06/05 02:53:59;;;;;;;7.60;5.05;;;;;;;16.60;74.10;101213.09;5100866;27;20491;-75
2022/06/05 02:56:28;;;;;;;6.97;4.80;;;;;;;16.61;74.26;101208.66;5087272;28;20041;-75
2022/06/05 02:58:55;;;;;;;7.03;5.18;;;;;;;16.64;73.88;101206.50;5083998;28;20032;-76
2022/06/05 03:04:08;;;;;;;5.53;4.88;;;;;;;16.61;74.07;101196.38;5098202;27;20392;-76
2022/06/05 03:06:35;;;;;;;5.60;4.20;;;;;;;16.62;73.96;101191.97;5100090;28;20092;-75
2022/06/05 03:09:01;;;;;;;7.72;4.78;;;;;;;16.61;74.03;101175.44;5081373;28;20060;-75
2022/06/05 03:11:26;;;;;;;10.90;4.88;;;;;;;16.61;73.81;101182.50;5070843;28;20043;-76
2022/06/05 03:13:52;;;;;;;6.80;4.93;;;;;;;16.65;73.75;101184.56;5097771;28;20172;-76
2022/06/05 03:16:18;;;;;;;6.03;4.68;;;;;;;16.60;73.72;101193.97;5082606;28;20106;-76
2022/06/05 03:18:43;;;;;;;8.07;4.47;;;;;;;16.53;73.98;101201.75;5081083;27;20036;-76
2022/06/05 03:21:09;;;;;;;10.02;5.32;;;;;;;16.50;73.75;101202.94;5064890;28;20032;-75
2022/06/05 03:23:34;;;;;;;5.72;4.43;;;;;;;16.50;73.86;101205.56;5083551;28;20039;-75
2022/06/05 03:26:00;;;;;;;6.53;4.20;;;;;;;16.47;74.10;101205.13;5063504;28;20031;-75
2022/06/05 03:28:26;;;;;;;7.68;4.80;;;;;;;16.45;74.39;101201.88;5078855;28;20054;-76
2022/06/05 03:30:51;;;;;;;8.05;5.28;;;;;;;16.44;74.28;101203.66;5099621;27;20040;-75
2022/06/05 03:33:17;;;;;;;6.40;4.72;;;;;;;16.44;74.34;101202.84;5082504;28;20039;-75
2022/06/05 03:35:44;;;;;;;9.68;4.85;;;;;;;16.47;74.36;101195.44;5100916;27;20035;-76
2022/06/05 03:38:12;;;;;;;7.07;5.18;;;;;;;16.38;74.66;101193.94;5098884;28;20042;-75
2022/06/05 03:40:42;;;;;;;6.32;4.85;;;;;;;16.36;74.72;101195.94;5093436;28;20032;-75
2022/06/05 03:43:07;;;;;;;6.50;4.97;;;;;;;16.40;74.85;101191.94;5079917;28;20036;-75
2022/06/05 03:45:33;;;;;;;8.90;5.20;;;;;;;16.39;75.13;101184.28;5081172;28;20092;-76
2022/06/05 03:47:58;;;;;;;8.77;5.95;;;;;;;16.34;75.22;101190.06;5078572;28;20036;-75
2022/06/05 03:50:24;;;;;;;7.85;5.30;;;;;;;16.30;75.41;101186.22;5097350;28;20032;-76
2022/06/05 03:52:50;;;;;;;7.22;5.32;;;;;;;16.30;75.57;101184.41;5062478;28;20032;-75
2022/06/05 03:55:22;;;;;;;5.47;4.90;;;;;;;16.37;75.33;101186.25;5082384;28;20084;-75
2022/06/05 03:57:49;;;;;;;8.40;5.35;;;;;;;16.33;75.44;101191.88;5078242;28;20035;-76
2022/06/05 04:00:17;;;;;;;10.90;5.25;;;;;;;16.39;75.38;101197.34;5082799;28;20043;-75
2022/06/05 04:02:42;;;;;;;10.50;5.95;;;;;;;16.30;75.79;101199.28;5068087;28;20568;-76
2022/06/05 04:05:11;;;;;;;8.63;5.82;;;;;;;16.34;75.71;101203.16;5081594;28;20043;-76
2022/06/05 04:07:36;;;;;;;8.05;5.95;;;;;;;16.28;76.22;101196.84;5079164;28;20040;-75
2022/06/05 04:10:02;;;;;;;8.45;5.50;;;;;;;16.31;76.20;101201.72;5065578;28;20562;-75
2022/06/05 04:12:27;;;;;;;7.63;5.25;;;;;;;16.40;76.00;101196.38;5081288;28;20782;-75
2022/06/05 04:14:53;;;;;;;9.07;5.00;;;;;;;16.38;76.02;101196.56;5101838;28;20036;-75
2022/06/05 04:17:18;;;;;;;7.55;5.20;;;;;;;16.40;76.32;101201.59;5081692;28;20031;-75
2022/06/05 04:19:44;;;;;;;9.10;5.43;;;;;;;16.38;76.53;101196.56;5099465;28;20624;-75
2022/06/05 04:22:09;;;;;;;11.95;5.90;;;;;;;16.37;76.34;101205.41;5097709;28;20035;-75
2022/06/05 04:24:35;;;;;;;7.07;5.03;;;;;;;16.39;76.40;101190.34;5082631;28;20032;-76
2022/06/05 04:27:00;;;;;;;6.63;5.70;;;;;;;16.39;76.37;101187.72;5100816;28;20545;-75
2022/06/05 04:29:26;;;;;;;7.32;5.13;;;;;;;16.40;76.75;101191.16;5068015;28;20046;-75
2022/06/05 04:31:51;;;;;;;7.20;5.65;;;;;;;16.41;76.88;101195.41;5077647;28;20027;-75
2022/06/05 04:34:19;;;;;;;8.52;6.65;;;;;;;16.42;76.94;101199.63;5064011;28;20038;-76
2022/06/05 04:36:46;;;;;;;8.75;5.90;;;;;;;16.47;76.42;101199.88;5084557;28;20027;-76
2022/06/05 04:39:11;;;;;;;7.93;6.00;;;;;;;16.52;76.22;101205.38;5082603;28;20448;-76
2022/06/05 04:41:38;;;;;;;10.27;5.93;;;;;;;16.57;75.85;101207.44;5082349;28;20060;-76
2022/06/05 04:44:05;;;;;;;12.65;5.78;;;;;;;16.54;76.14;101222.50;5084083;28;20404;-75
2022/06/05 04:46:31;;;;;;;7.97;5.10;;;;;;;16.54;76.31;101214.66;5082171;28;20519;-75
2022/06/05 04:48:57;;;;;;;8.80;5.90;;;;;;;16.59;76.09;101215.91;5093617;28;20073;-76
2022/06/05 04:51:23;;;;;;;6.30;5.28;;;;;;;16.53;76.53;101215.63;5079880;28;20664;-76
2022/06/05 04:53:51;;;;;;;7.95;6.40;;;;;;;16.58;76.28;101217.72;5064231;28;20027;-76
2022/06/05 04:56:24;;;;;;;7.55;5.25;;;;;;;16.58;76.19;101227.38;5097340;28;20173;-76
2022/06/05 04:58:50;;;;;;;6.32;5.20;;;;;;;16.60;76.15;101236.66;5082816;28;20035;-75
2022/06/05 05:01:21;;;;;;;6.10;4.55;;;;;;;16.64;76.08;101242.34;5062777;28;20027;-75
2022/06/05 05:03:47;;;;;;;7.07;5.35;;;;;;;16.64;76.32;101230.06;5080630;28;20122;-75
2022/06/05 05:06:13;;;;;;;7.30;5.63;;;;;;;16.65;76.41;101242.16;5082790;28;20536;-76
2022/06/05 05:08:39;;;;;;;9.75;5.70;;;;;;;16.66;76.51;101237.72;5095905;28;20035;-75
2022/06/05 05:11:04;;;;;;;7.65;5.20;;;;;;;16.68;76.22;101239.16;5102845;27;20046;-76
2022/06/05 05:13:30;;;;;;;6.22;5.15;;;;;;;16.73;76.36;101247.28;5084482;28;20032;-75
2022/06/05 05:15:56;;;;;;;6.78;5.40;;;;;;;16.75;75.84;101239.25;5100907;28;20093;-75
2022/06/05 05:18:22;;;;;;;5.18;4.68;;;;;;;16.79;76.04;101247.53;5101297;27;20061;-75
2022/06/05 05:20:48;;;;;;;5.55;4.45;;;;;;;16.83;75.71;101256.66;5080628;27;20023;-75
2022/06/05 05:23:14;;;;;;;6.55;4.97;;;;;;;16.85;75.26;101252.06;5101782;28;20108;-75
2022/06/05 05:25:39;;;;;;;7.10;4.95;;;;;;;16.89;75.36;101248.06;5087768;27;20112;-75
2022/06/05 05:28:08;;;;;;;6.40;4.60;;;;;;;16.93;75.50;101244.91;5101003;28;20766;-75
2022/06/05 05:30:34;;;;;;;11.25;4.88;;;;;;;16.95;75.65;101243.88;5083835;28;20027;-75
2022/06/05 05:33:00;;;;;;;7.43;4.32;;;;;;;17.00;75.26;101244.94;5082982;28;20066;-75
2022/06/05 05:35:26;;;;;;;7.68;4.50;;;;;;;17.06;75.35;101233.72;5084523;27;20126;-75
2022/06/05 05:37:51;;;;;;;7.35;4.90;;;;;;;17.09;75.24;101230.72;5097817;27;20027;-76
2022/06/05 05:43:01;;;;;;;7.03;4.63;;;;;;;17.15;75.42;101226.53;5081756;28;20167;-75
2022/06/05 05:45:27;;;;;;;7.55;5.40;;;;;;;17.20;74.93;101226.00;5084854;28;21931;-76
2022/06/05 05:47:52;;;;;;;5.78;4.65;;;;;;;17.20;75.01;101220.75;5065039;28;20042;-75
2022/06/05 05:50:18;;;;;;;7.15;5.40;;;;;;;17.19;75.07;101225.16;5063722;28;20028;-75
2022/06/05 05:52:45;;;;;;;8.00;5.20;;;;;;;17.25;75.49;101221.81;5099223;28;20530;-75
2022/06/05 05:55:13;;;;;;;5.97;5.38;;;;;;;17.18;75.86;101218.31;5082611;28;20056;-75
2022/06/05 05:57:40;;;;;;;8.70;5.22;;;;;;;17.19;76.20;101213.88;5099385;27;20043;-75
2022/06/05 06:00:09;;;;;;;7.07;5.47;;;;;;;17.25;75.97;101197.38;5079836;28;20399;-76
2022/06/05 06:02:35;;;;;;;6.65;5.05;;;;;;;17.21;76.24;101194.31;5064489;28;20058;-75
2022/06/05 06:05:02;;;;;;;7.75;6.15;;;;;;;17.21;76.15;101196.16;5103923;27;20028;-76
2022/06/05 06:07:27;;;;;;;9.77;5.85;;;;;;;17.24;75.84;101193.16;5103168;28;21458;-75
2022/06/05 06:09:53;;;;;;;6.68;4.85;;;;;;;17.24;75.94;101177.44;5083213;28;20028;-75
2022/06/05 06:12:18;;;;;;;6.82;5.43;;;;;;;17.25;76.07;101177.25;5104362;27;20454;-76
2022/06/05 06:14:44;;;;;;;7.63;5.45;;;;;;;17.36;76.12;101175.88;5088319;27;20435;-76
2022/06/05 06:17:10;;;;;;;7.70;5.82;;;;;;;17.38;76.43;101170.47;5086770;27;20039;-75
2022/06/05 06:19:36;;;;;;;7.10;5.65;;;;;;;17.40;76.25;101165.84;5069172;27;20599;-76
2022/06/05 06:22:01;;;;;;;6.88;5.28;;;;;;;17.44;76.61;101167.06;5085973;28;20054;-76
2022/06/05 06:24:27;;;;;;;8.38;5.97;;;;;;;17.52;76.38;101161.69;5099231;27;20035;-75
2022/06/05 06:26:53;;;;;;;5.82;5.22;;;;;;;17.56;76.39;101165.53;5083840;28;20039;-75
2022/06/05 06:29:18;;;;;;;5.75;4.75;;;;;;;17.60;76.14;101161.53;5086821;27;20031;-75
2022/06/05 06:31:44;;;;;;;9.73;5.85;;;;;;;17.68;76.11;101143.00;5084812;28;20043;-75
2022/06/05 06:34:09;;;;;;;7.38;5.90;;;;;;;17.72;75.80;101140.81;5097023;27;20046;-75
2022/06/05 06:36:35;;;;;;;6.85;6.10;;;;;;;17.84;75.68;101143.69;5081322;28;20035;-76
2022/06/05 06:39:01;;;;;;;9.57;6.60;;;;;;;17.85;75.53;101138.25;5099740;28;20037;-76
2022/06/05 06:41:27;;;;;;;8.00;5.40;;;;;;;17.86;75.87;101134.66;5102499;28;20805;-75
2022/06/05 06:43:53;;;;;;;9.98;5.85;;;;;;;17.89;76.24;101123.78;5104669;27;20035;-75
2022/06/05 06:46:19;;;;;;;10.95;5.95;;;;;;;17.97;75.68;101122.78;5085351;28;20468;-76
2022/06/05 06:48:45;;;;;;;9.93;6.18;;;;;;;17.96;75.35;101117.72;5085452;28;20043;-75
2022/06/05 06:51:11;;;;;;;17.92;10.68;;;;;;;17.96;75.60;101115.91;5081274;28;20028;-75
2022/06/05 06:53:38;;;;;;;13.63;9.48;;;;;;;18.03;75.60;101114.13;5083263;28;20038;-76
2022/06/05 06:56:09;;;;;;;12.15;7.35;;;;;;;18.08;75.96;101113.50;5084004;27;20036;-75
2022/06/05 06:58:35;;;;;;;8.40;6.35;;;;;;;18.16;76.14;101104.66;5081353;28;20495;-75
2022/06/05 07:01:00;;;;;;;7.47;5.28;;;;;;;18.29;75.82;101095.00;5080582;28;20023;-76
2022/06/05 07:03:25;;;;;;;9.10;5.57;;;;;;;18.30;75.62;101087.94;5104884;27;20506;-76
2022/06/05 07:05:51;;;;;;;9.98;5.90;;;;;;;18.39;75.09;101091.19;5065921;28;20510;-75
2022/06/05 07:08:16;;;;;;;7.97;6.15;;;;;;;18.34;75.33;101091.75;5102464;27;20707;-75
2022/06/05 07:10:43;;;;;;;6.47;5.65;;;;;;;18.42;75.37;101085.50;5068287;28;20629;-76
2022/06/05 07:13:09;;;;;;;7.32;5.15;;;;;;;18.49;75.45;101087.13;5087878;28;20180;-76
2022/06/05 07:15:35;;;;;;;6.00;5.07;;;;;;;18.58;74.89;101086.94;5078703;28;20583;-76
2022/06/05 07:18:05;;;;;;;7.03;5.57;;;;;;;18.64;74.94;101088.75;5100774;28;20180;-76
2022/06/05 07:20:40;;;;;;;8.15;5.32;;;;;;;18.68;74.61;101080.28;5067150;27;20118;-76
2022/06/05 07:23:07;;;;;;;10.20;6.65;;;;;;;18.75;74.36;101074.22;5105437;27;20544;-76
2022/06/05 07:25:33;;;;;;;9.30;5.75;;;;;;;18.86;73.58;101081.50;5105780;28;20023;-76
2022/06/05 07:27:59;;;;;;;6.93;5.65;;;;;;;18.83;73.58;101074.03;5064939;28;20070;-76
2022/06/05 07:30:25;;;;;;;7.85;6.30;;;;;;;18.90;73.74;101079.28;5102305;27;20047;-76
2022/06/05 07:32:52;;;;;;;7.55;5.82;;;;;;;18.95;74.21;101076.84;5067187;28;20399;-76
2022/06/05 07:35:18;;;;;;;6.20;5.35;;;;;;;19.04;73.81;101072.97;5081957;28;20317;-76
2022/06/05 07:37:44;;;;;;;7.07;5.88;;;;;;;19.18;73.53;101076.41;5068518;28;20036;-76
2022/06/05 07:40:10;;;;;;;10.52;6.18;;;;;;;19.22;73.13;101073.16;5105867;27;20511;-76
2022/06/05 07:42:41;;;;;;;7.00;5.85;;;;;;;19.24;73.66;101075.56;5087743;28;20376;-76
2022/06/05 07:45:08;;;;;;;8.88;5.50;;;;;;;19.32;72.93;101069.28;5082195;28;20530;-76
2022/06/05 07:47:33;;;;;;;9.32;6.20;;;;;;;19.43;73.62;101060.75;5086049;27;20023;-76
2022/06/05 07:49:59;;;;;;;8.98;5.63;;;;;;;19.50;73.07;101071.25;5085880;28;20042;-76
2022/06/05 07:55:10;;;;;;;9.48;5.25;;;;;;;19.77;72.21;101067.50;5082889;28;20055;-75
2022/06/05 07:57:36;;;;;;;11.07;5.57;;;;;;;19.80;71.88;101055.75;5083667;27;20034;-76
2022/06/05 08:00:05;;;;;;;8.65;5.82;;;;;;;19.91;69.58;101057.72;5088093;28;20035;-77
2022/06/05 08:02:31;;;;;;;6.47;5.55;;;;;;;19.81;70.28;101063.41;5082442;28;20067;-75
2022/06/05 08:04:57;;;;;;;7.65;5.57;;;;;;;19.90;69.92;101063.19;5079649;28;20131;-75
2022/06/05 08:07:25;;;;;;;9.35;5.28;;;;;;;19.97;71.14;101064.75;5105765;27;20027;-75
2022/06/05 08:09:54;;;;;;;11.75;5.68;;;;;;;20.00;70.45;101069.63;5078144;28;20036;-76
2022/06/05 08:12:22;;;;;;;5.78;4.75;;;;;;;20.12;70.55;101072.38;5086243;28;20038;-76
2022/06/05 08:14:49;;;;;;;5.97;5.20;;;;;;;20.38;69.32;101066.09;5069584;28;20110;-75
2022/06/05 08:17:24;;;;;;;6.78;5.25;;;;;;;20.64;69.19;101066.94;5083282;28;20024;-75
2022/06/05 08:19:50;;;;;;;8.80;5.95;;;;;;;21.00;67.84;101055.66;5100794;28;20040;-76
2022/06/05 08:22:18;;;;;;;9.82;5.75;;;;;;;21.30;66.95;101054.09;5086126;28;20026;-76
2022/06/05 08:24:44;;;;;;;6.40;4.68;;;;;;;21.41;66.89;101055.19;5104870;28;20517;-76
2022/06/05 08:27:12;;;;;;;7.15;5.65;;;;;;;21.38;66.69;101053.81;5081882;28;20122;-76
2022/06/05 08:29:38;;;;;;;6.00;4.63;;;;;;;21.35;67.35;101057.69;5082211;28;20128;-76
2022/06/05 08:32:05;;;;;;;7.20;5.32;;;;;;;21.33;66.93;101062.38;5089234;28;20031;-76
2022/06/05 08:34:31;;;;;;;6.90;5.35;;;;;;;21.38;67.75;101062.53;5099791;28;20046;-76
2022/06/05 08:42:38;;;;;;;7.88;5.75;;;;;;;21.08;65.46;101045.81;5084372;28;20055;-76
2022/06/05 08:45:24;;;;;;;10.70;6.45;;;;;;;21.16;65.27;101056.09;5091324;28;20024;-76
2022/06/05 08:48:02;;;;;;;8.55;5.95;;;;;;;21.13;64.89;101056.50;5083694;28;20036;-77
2022/06/05 08:50:52;;;;;;;8.18;5.82;;;;;;;21.19;65.10;101053.00;5072780;28;20161;-77
2022/06/05 08:53:55;;;;;;;6.13;5.53;;;;;;;21.07;66.05;101052.94;5106688;27;20039;-76
2022/06/05 08:56:30;;;;;;;7.65;6.40;;;;;;;20.94;67.14;101056.50;5071285;28;20039;-75
2022/06/05 08:59:00;;;;;;;9.88;5.68;;;;;;;20.82;68.10;101060.09;5083565;27;20441;-77
2022/06/05 09:01:37;;;;;;;8.80;5.57;;;;;;;20.71;67.96;101062.41;5083467;28;20492;-77
2022/06/05 09:04:22;;;;;;;6.80;6.10;;;;;;;20.69;67.87;101055.75;5104330;27;20040;-76
2022/06/05 09:06:57;;;;;;;6.63;5.90;;;;;;;20.64;68.71;101053.75;5067154;28;20054;-76
2022/06/05 09:09:27;;;;;;;8.40;6.10;;;;;;;20.64;68.38;101045.84;5083680;28;20036;-75
2022/06/05 09:12:14;;;;;;;10.05;5.65;;;;;;;20.64;68.56;101043.22;5078664;28;20036;-76
2022/06/05 09:15:05;;;;;;;7.40;5.63;;;;;;;20.59;69.80;101053.59;5080624;28;20062;-77
2022/06/05 09:17:31;;;;;;;8.15;6.75;;;;;;;20.63;71.27;101054.00;5097100;27;22467;-76
2022/06/05 09:19:58;;;;;;;10.00;6.18;;;;;;;20.62;72.04;101047.91;5082551;28;20054;-76
2022/06/05 09:22:33;;;;;;;8.45;6.47;;;;;;;20.65;71.86;101057.22;5084351;27;20032;-76
2022/06/05 09:25:33;;;;;;;7.70;6.28;;;;;;;20.40;71.17;101048.25;5079290;28;20480;-76
2022/06/05 09:28:24;;;;;;;7.57;6.78;;;;;;;20.21;72.43;101046.56;5082376;28;20107;-76
2022/06/05 09:31:13;;;;;;;9.65;6.38;;;;;;;20.21;72.57;101049.22;5083564;28;20431;-76
2022/06/05 09:33:41;;;;;;;8.27;7.47;;;;;;;20.12;73.25;101058.41;5087883;27;20481;-76
2022/06/05 09:36:11;;;;;;;7.05;6.35;;;;;;;20.16;73.96;101049.06;5083283;28;20035;-77
2022/06/05 09:38:46;;;;;;;8.30;7.07;;;;;;;20.10;74.98;101060.41;5089804;27;20206;-76
2022/06/05 09:41:11;;;;;;;9.52;7.38;;;;;;;19.76;76.51;101059.81;5067320;28;20020;-77
2022/06/05 09:43:57;;;;;;;9.50;7.97;;;;;;;19.42;78.63;101059.94;5084221;28;20843;-77
2022/06/05 09:46:58;;;;;;;11.43;8.45;;;;;;;19.06;81.85;101071.78;5081824;28;20103;-76
2022/06/05 09:49:45;;;;;;;11.60;9.13;;;;;;;18.66;86.83;101065.72;5087286;28;20070;-76
2022/06/05 09:52:24;;;;;;;11.38;9.85;;;;;;;18.56;88.44;101065.34;5101502;27;20755;-75
2022/06/05 09:55:00;;;;;;;13.20;9.85;;;;;;;18.44;90.46;101065.94;5083674;28;20548;-76
2022/06/05 10:00:37;;;;;;;12.77;11.35;;;;;;;18.39;92.78;101059.69;5103808;28;20430;-77
2022/06/05 10:03:11;;;;;;;19.45;11.35;;;;;;;18.36;93.22;101057.44;5070739;27;20431;-79
2022/06/05 10:05:40;;;;;;;18.88;12.10;;;;;;;18.28;93.68;101064.50;5086703;28;20035;-79
2022/06/05 10:08:19;;;;;;;17.15;12.10;;;;;;;18.17;94.63;101056.41;5101360;27;20039;-74
2022/06/05 10:10:46;;;;;;;16.35;12.40;;;;;;;18.22;95.49;101054.81;5082424;28;20040;-74
2022/06/05 10:13:22;;;;;;;15.70;11.88;;;;;;;18.31;95.15;101057.22;5070651;28;20824;-74
2022/06/05 10:16:00;;;;;;;16.45;11.95;;;;;;;18.35;95.94;101046.16;5100173;28;20126;-74
2022/06/05 10:18:50;;;;;;;14.75;12.15;;;;;;;18.36;97.03;101045.13;5085114;28;20051;-75
2022/06/05 10:21:20;;;;;;;15.07;11.73;;;;;;;18.43;95.89;101048.56;5069775;28;20066;-74
2022/06/05 10:23:54;;;;;;;17.60;12.77;;;;;;;18.49;96.22;101039.88;5101875;27;20110;-75
2022/06/05 10:26:31;;;;;;;15.07;12.23;;;;;;;18.55;95.89;101040.06;5086112;28;20031;-75
2022/06/05 10:29:30;;;;;;;15.57;12.05;;;;;;;18.51;96.52;101042.31;5070723;28;20031;-75
2022/06/05 10:32:06;;;;;;;16.17;11.95;;;;;;;18.51;97.37;101038.88;5091745;27;20574;-75
2022/06/05 10:34:34;;;;;;;16.33;12.60;;;;;;;18.44;97.36;101037.06;5085058;28;20414;-77
2022/06/05 10:37:16;;;;;;;15.93;12.05;;;;;;;18.45;98.30;101038.66;5087700;28;20168;-75
2022/06/05 10:40:08;;;;;;;16.27;12.85;;;;;;;18.58;98.50;101032.59;5080796;28;20039;-75
2022/06/05 10:42:59;;;;;;;16.75;13.85;;;;;;;18.69;97.20;101039.06;5082098;28;20395;-75
2022/06/05 10:45:34;;;;;;;14.82;13.18;;;;;;;18.82;96.74;101033.81;5084567;28;20984;-74
2022/06/05 10:48:24;;;;;;;15.80;13.88;;;;;;;18.78;98.01;101040.47;5083326;28;20036;-76
2022/06/05 10:50:57;;;;;;;15.40;12.88;;;;;;;18.90;97.07;101032.00;5077074;28;20043;-74
2022/06/05 10:53:28;;;;;;;;;;;;;;;18.95;96.89;101038.25;5068179;28;20087;-75
2022/06/05 10:56:21;;;;;;;15.10;13.32;;;;;;;18.97;96.72;101033.59;5081869;28;19916;-74
2022/06/05 10:58:53;;;;;;;21.75;14.95;;;;;;;18.98;97.38;101027.31;5081223;28;20039;-76
2022/06/05 11:02:01;;;;;;;15.32;13.68;;;;;;;19.08;97.30;101024.28;5076837;28;20437;-75
2022/06/05 11:04:42;;;;;;;15.30;12.18;;;;;;;19.12;97.13;101022.03;5000262;28;20576;-75
2022/06/05 11:07:22;;;;;;;16.30;12.68;;;;;;;19.19;97.43;101010.50;5077501;28;20495;-75
2022/06/05 11:09:57;;;;;;;14.75;13.18;;;;;;;19.21;97.61;101003.22;5080643;28;20080;-75
2022/06/05 11:15:24;;;;;;;;;;;;;;;19.41;97.50;100997.84;5098556;28;20087;-76
2022/06/05 11:18:08;;;;;;;18.13;13.57;;;;;;;19.43;96.53;100990.56;5095396;28;20124;-77
2022/06/05 11:20:35;;;;;;;16.92;12.82;;;;;;;19.58;95.42;100979.75;5095312;27;20270;-76
2022/06/05 11:23:06;;;;;;;18.42;13.95;;;;;;;19.72;96.27;100975.28;5099701;28;20423;-76
2022/06/05 11:25:36;;;;;;;19.90;14.32;;;;;;;19.81;95.03;100967.91;5102205;28;20033;-77
2022/06/05 11:28:22;;;;;;;18.35;15.60;;;;;;;20.03;96.33;100968.38;5096928;27;20031;-76
2022/06/05 11:31:11;;;;;;;17.13;14.32;;;;;;;20.05;94.44;100958.44;5096183;28;20031;-76
2022/06/05 11:34:15;;;;;;;19.00;14.00;;;;;;;19.95;93.29;100943.13;5100857;28;20085;-78
2022/06/05 11:36:47;;;;;;;14.45;12.23;;;;;;;20.11;93.96;100944.41;5081114;28;20043;-76
2022/06/05 11:39:28;;;;;;;13.75;12.30;;;;;;;19.99;90.83;100940.88;5099358;28;20032;-76
2022/06/05 11:42:14;;;;;;;12.85;11.50;;;;;;;20.00;91.62;100926.69;5079164;28;20031;-78
2022/06/05 11:45:00;;;;;;;13.85;12.05;;;;;;;20.01;93.09;100920.41;5083805;28;20122;-75
2022/06/05 11:47:33;;;;;;;16.42;13.90;;;;;;;20.07;94.01;100914.28;5100690;27;20041;-77
2022/06/05 11:50:36;;;;;;;17.42;13.35;;;;;;;20.09;93.18;100903.53;5063845;28;20063;-78
2022/06/05 11:53:14;;;;;;;14.57;12.70;;;;;;;20.33;93.83;100894.00;5080049;28;20617;-74
2022/06/05 11:55:53;;;;;;;14.75;12.70;;;;;;;20.70;92.93;100875.56;5095490;27;20042;-75
2022/06/05 11:58:44;;;;;;;14.50;12.98;;;;;;;21.10;90.52;100878.50;5082752;27;20031;-77
2022/06/05 12:01:19;;;;;;;15.15;11.65;;;;;;;21.45;88.64;100884.94;5079007;27;20039;-74
2022/06/05 12:03:46;;;;;;;13.15;11.75;;;;;;;21.46;86.15;100878.66;5079468;28;20039;-76
2022/06/05 12:06:21;;;;;;;16.17;11.00;;;;;;;21.43;86.23;100871.94;5095133;28;20089;-77